sensor_id;sensor_type;location;lat;lon;timestamp;pressure;altitude;pressure_sealevel;temperature;humidity
9764;BME280;4921;43.214;27.936;2022-10-23T00:00:14;101136.66;;;16.01;85.37
9764;BME280;4921;43.214;27.936;2022-10-23T00:02:41;101128.69;;;16.01;85.32
9764;BME280;4921;43.214;27.936;2022-10-23T00:05:08;101121.59;;;16.02;84.09
9764;BME280;4921;43.214;27.936;2022-10-23T00:07:35;101134.38;;;16.07;83.61
9764;BME280;4921;43.214;27.936;2022-10-23T00:10:05;101134.66;;;16.13;82.70
9764;BME280;4921;43.214;27.936;2022-10-23T00:12:32;101129.59;;;16.20;80.14
9764;BME280;4921;43.214;27.936;2022-10-23T00:14:58;101131.81;;;16.24;78.51
9764;BME280;4921;43.214;27.936;2022-10-23T00:17:25;101132.50;;;16.26;76.98
9764;BME280;4921;43.214;27.936;2022-10-23T00:19:52;101129.41;;;16.31;75.85
9764;BME280;4921;43.214;27.936;2022-10-23T00:22:19;101126.50;;;16.24;74.86
9764;BME280;4921;43.214;27.936;2022-10-23T00:24:46;101131.81;;;16.24;74.35
9764;BME280;4921;43.214;27.936;2022-10-23T00:27:15;101132.06;;;16.31;73.11
9764;BME280;4921;43.214;27.936;2022-10-23T00:29:43;101128.97;;;16.35;71.71
9764;BME280;4921;43.214;27.936;2022-10-23T00:32:10;101122.84;;;16.35;71.07
9764;BME280;4921;43.214;27.936;2022-10-23T00:34:37;101124.25;;;16.39;70.43
9764;BME280;4921;43.214;27.936;2022-10-23T00:37:04;101125.88;;;16.40;69.35
9764;BME280;4921;43.214;27.936;2022-10-23T00:39:31;101125.31;;;16.46;67.72
9764;BME280;4921;43.214;27.936;2022-10-23T00:41:58;101115.38;;;16.48;67.26
9764;BME280;4921;43.214;27.936;2022-10-23T00:47:31;101109.81;;;16.51;64.42
9764;BME280;4921;43.214;27.936;2022-10-23T00:49:58;101099.03;;;16.52;63.61
9764;BME280;4921;43.214;27.936;2022-10-23T00:52:26;101102.25;;;16.56;63.06
9764;BME280;4921;43.214;27.936;2022-10-23T00:54:54;101098.59;;;16.57;62.21
9764;BME280;4921;43.214;27.936;2022-10-23T00:57:21;101093.13;;;16.58;61.87
9764;BME280;4921;43.214;27.936;2022-10-23T00:59:48;101089.88;;;16.64;61.25
9764;BME280;4921;43.214;27.936;2022-10-23T01:02:15;101084.41;;;16.66;61.11
9764;BME280;4921;43.214;27.936;2022-10-23T01:04:44;101087.22;;;16.64;60.38
9764;BME280;4921;43.214;27.936;2022-10-23T01:07:13;101077.13;;;16.68;59.52
9764;BME280;4921;43.214;27.936;2022-10-23T01:09:47;101075.16;;;16.70;58.51
9764;BME280;4921;43.214;27.936;2022-10-23T01:12:23;101059.06;;;16.71;58.23
9764;BME280;4921;43.214;27.936;2022-10-23T01:15:00;101058.78;;;16.74;57.90
9764;BME280;4921;43.214;27.936;2022-10-23T01:17:34;101059.16;;;16.80;57.66
9764;BME280;4921;43.214;27.936;2022-10-23T01:20:18;101068.63;;;16.82;57.67
9764;BME280;4921;43.214;27.936;2022-10-23T01:23:06;101074.50;;;16.86;57.52
9764;BME280;4921;43.214;27.936;2022-10-23T01:25:47;101065.53;;;16.87;57.52
9764;BME280;4921;43.214;27.936;2022-10-23T01:28:24;101075.03;;;16.89;57.02
9764;BME280;4921;43.214;27.936;2022-10-23T01:30:56;101076.53;;;16.92;56.38
9764;BME280;4921;43.214;27.936;2022-10-23T01:33:27;101075.69;;;16.91;56.11
9764;BME280;4921;43.214;27.936;2022-10-23T01:35:59;101077.38;;;16.92;56.41
9764;BME280;4921;43.214;27.936;2022-10-23T01:38:36;101076.69;;;16.90;56.98
9764;BME280;4921;43.214;27.936;2022-10-23T01:41:10;101071.16;;;16.84;56.91
9764;BME280;4921;43.214;27.936;2022-10-23T01:43:43;101066.38;;;16.87;56.67
9764;BME280;4921;43.214;27.936;2022-10-23T01:46:15;101058.63;;;16.76;56.94
9764;BME280;4921;43.214;27.936;2022-10-23T01:48:45;101051.66;;;16.75;57.42
9764;BME280;4921;43.214;27.936;2022-10-23T01:51:16;101056.41;;;16.71;57.53
9764;BME280;4921;43.214;27.936;2022-10-23T01:53:45;101055.50;;;16.63;58.31
9764;BME280;4921;43.214;27.936;2022-10-23T01:56:18;101054.91;;;16.69;58.68
9764;BME280;4921;43.214;27.936;2022-10-23T01:58:50;101058.03;;;16.64;59.50
9764;BME280;4921;43.214;27.936;2022-10-23T02:01:21;101063.56;;;16.44;61.31
9764;BME280;4921;43.214;27.936;2022-10-23T02:03:49;101062.38;;;16.29;62.30
9764;BME280;4921;43.214;27.936;2022-10-23T02:06:16;101064.66;;;16.24;62.75
9764;BME280;4921;43.214;27.936;2022-10-23T02:08:44;101065.53;;;16.15;63.33
9764;BME280;4921;43.214;27.936;2022-10-23T02:11:13;101068.56;;;16.20;63.87
9764;BME280;4921;43.214;27.936;2022-10-23T02:13:44;101063.56;;;16.17;64.17
9764;BME280;4921;43.214;27.936;2022-10-23T02:16:20;101066.91;;;16.19;63.81
9764;BME280;4921;43.214;27.936;2022-10-23T02:18:54;101067.63;;;16.11;64.58
9764;BME280;4921;43.214;27.936;2022-10-23T02:21:29;101063.06;;;16.03;64.67
9764;BME280;4921;43.214;27.936;2022-10-23T02:24:00;101061.13;;;15.96;64.23
9764;BME280;4921;43.214;27.936;2022-10-23T02:26:32;101071.72;;;15.96;63.97
9764;BME280;4921;43.214;27.936;2022-10-23T02:29:04;101070.78;;;15.97;63.82
9764;BME280;4921;43.214;27.936;2022-10-23T02:31:34;101070.63;;;15.98;63.24
9764;BME280;4921;43.214;27.936;2022-10-23T02:34:01;101063.94;;;15.94;63.20
9764;BME280;4921;43.214;27.936;2022-10-23T02:36:28;101070.22;;;15.93;63.04
9764;BME280;4921;43.214;27.936;2022-10-23T02:38:55;101064.63;;;15.96;62.58
9764;BME280;4921;43.214;27.936;2022-10-23T02:41:33;101061.00;;;15.97;62.14
9764;BME280;4921;43.214;27.936;2022-10-23T02:44:09;101066.00;;;16.00;61.85
9764;BME280;4921;43.214;27.936;2022-10-23T02:46:49;101065.31;;;15.98;61.77
9764;BME280;4921;43.214;27.936;2022-10-23T02:49:22;101067.13;;;15.98;62.83
9764;BME280;4921;43.214;27.936;2022-10-23T02:51:58;101069.50;;;16.01;61.58
9764;BME280;4921;43.214;27.936;2022-10-23T02:54:41;101080.34;;;16.08;60.88
9764;BME280;4921;43.214;27.936;2022-10-23T02:57:18;101070.44;;;16.10;60.47
9764;BME280;4921;43.214;27.936;2022-10-23T02:59:54;101067.50;;;16.13;60.04
9764;BME280;4921;43.214;27.936;2022-10-23T03:02:31;101066.38;;;16.15;59.75
9764;BME280;4921;43.214;27.936;2022-10-23T03:05:02;101068.56;;;16.20;59.49
9764;BME280;4921;43.214;27.936;2022-10-23T03:07:30;101075.41;;;16.22;59.10
9764;BME280;4921;43.214;27.936;2022-10-23T03:09:57;101075.81;;;16.27;58.75
9764;BME280;4921;43.214;27.936;2022-10-23T03:12:24;101072.16;;;16.28;58.62
9764;BME280;4921;43.214;27.936;2022-10-23T03:14:51;101069.75;;;16.35;57.82
9764;BME280;4921;43.214;27.936;2022-10-23T03:17:18;101072.97;;;16.38;57.68
9764;BME280;4921;43.214;27.936;2022-10-23T03:19:47;101074.59;;;16.39;57.23
9764;BME280;4921;43.214;27.936;2022-10-23T03:22:14;101066.06;;;16.45;56.78
9764;BME280;4921;43.214;27.936;2022-10-23T03:24:40;101061.00;;;16.52;56.65
9764;BME280;4921;43.214;27.936;2022-10-23T03:27:07;101064.06;;;16.57;56.46
9764;BME280;4921;43.214;27.936;2022-10-23T03:29:35;101062.09;;;16.59;56.33
9764;BME280;4921;43.214;27.936;2022-10-23T03:32:03;101074.91;;;16.63;56.17
9764;BME280;4921;43.214;27.936;2022-10-23T03:34:30;101077.28;;;16.66;56.14
9764;BME280;4921;43.214;27.936;2022-10-23T03:36:58;101088.44;;;16.70;55.98
9764;BME280;4921;43.214;27.936;2022-10-23T03:39:25;101101.28;;;16.74;55.42
9764;BME280;4921;43.214;27.936;2022-10-23T03:41:52;101102.34;;;16.82;54.61
9764;BME280;4921;43.214;27.936;2022-10-23T03:44:19;101104.41;;;16.88;53.53
9764;BME280;4921;43.214;27.936;2022-10-23T03:46:46;101103.97;;;16.92;52.98
9764;BME280;4921;43.214;27.936;2022-10-23T03:49:13;101095.44;;;16.89;53.09
9764;BME280;4921;43.214;27.936;2022-10-23T03:51:40;101096.22;;;16.99;52.90
9764;BME280;4921;43.214;27.936;2022-10-23T03:54:09;101087.13;;;17.01;52.73
9764;BME280;4921;43.214;27.936;2022-10-23T03:56:37;101077.97;;;17.04;52.53
9764;BME280;4921;43.214;27.936;2022-10-23T03:59:03;101084.81;;;17.06;52.42
9764;BME280;4921;43.214;27.936;2022-10-23T04:01:30;101082.03;;;17.08;52.72
9764;BME280;4921;43.214;27.936;2022-10-23T04:03:57;101076.84;;;17.06;53.15
9764;BME280;4921;43.214;27.936;2022-10-23T04:06:24;101079.50;;;17.06;53.18
9764;BME280;4921;43.214;27.936;2022-10-23T04:08:51;101068.72;;;16.90;55.27
9764;BME280;4921;43.214;27.936;2022-10-23T04:11:19;101076.25;;;16.95;55.01
9764;BME280;4921;43.214;27.936;2022-10-23T04:13:46;101090.00;;;16.90;54.86
9764;BME280;4921;43.214;27.936;2022-10-23T04:16:13;101084.28;;;16.85;55.07
9764;BME280;4921;43.214;27.936;2022-10-23T04:18:41;101082.97;;;16.71;55.42
9764;BME280;4921;43.214;27.936;2022-10-23T04:21:08;101080.47;;;16.70;55.17
9764;BME280;4921;43.214;27.936;2022-10-23T04:23:35;101088.19;;;16.63;55.42
9764;BME280;4921;43.214;27.936;2022-10-23T04:26:03;101088.66;;;16.59;54.82
9764;BME280;4921;43.214;27.936;2022-10-23T04:28:31;101084.47;;;16.56;55.26
9764;BME280;4921;43.214;27.936;2022-10-23T04:30:58;101095.13;;;16.47;56.04
9764;BME280;4921;43.214;27.936;2022-10-23T04:33:25;101106.44;;;16.49;56.58
9764;BME280;4921;43.214;27.936;2022-10-23T04:35:52;101112.59;;;16.49;56.11
9764;BME280;4921;43.214;27.936;2022-10-23T04:38:19;101109.53;;;16.44;56.55
9764;BME280;4921;43.214;27.936;2022-10-23T04:40:46;101110.25;;;16.37;56.77
9764;BME280;4921;43.214;27.936;2022-10-23T04:43:13;101113.22;;;16.34;56.91
9764;BME280;4921;43.214;27.936;2022-10-23T04:45:41;101115.09;;;16.24;57.62
9764;BME280;4921;43.214;27.936;2022-10-23T04:48:08;101120.41;;;16.24;57.03
9764;BME280;4921;43.214;27.936;2022-10-23T04:50:35;101100.81;;;16.25;57.20
9764;BME280;4921;43.214;27.936;2022-10-23T04:53:02;101103.75;;;16.22;57.35
9764;BME280;4921;43.214;27.936;2022-10-23T04:55:29;101102.94;;;16.21;57.15
9764;BME280;4921;43.214;27.936;2022-10-23T04:57:56;101112.56;;;16.22;57.90
9764;BME280;4921;43.214;27.936;2022-10-23T05:00:23;101106.41;;;16.22;57.73
9764;BME280;4921;43.214;27.936;2022-10-23T05:02:51;101099.88;;;16.16;58.12
9764;BME280;4921;43.214;27.936;2022-10-23T05:05:18;101111.19;;;16.18;57.83
9764;BME280;4921;43.214;27.936;2022-10-23T05:07:45;101102.38;;;16.18;57.29
9764;BME280;4921;43.214;27.936;2022-10-23T05:10:12;101108.41;;;16.10;57.28
9764;BME280;4921;43.214;27.936;2022-10-23T05:12:39;101113.16;;;16.16;57.54
9764;BME280;4921;43.214;27.936;2022-10-23T05:15:06;101117.91;;;16.13;57.56
9764;BME280;4921;43.214;27.936;2022-10-23T05:17:34;101102.03;;;16.03;57.25
9764;BME280;4921;43.214;27.936;2022-10-23T05:20:07;101110.97;;;16.02;57.26
9764;BME280;4921;43.214;27.936;2022-10-23T05:22:38;101118.72;;;16.13;57.06
9764;BME280;4921;43.214;27.936;2022-10-23T05:25:08;101133.53;;;16.16;56.98
9764;BME280;4921;43.214;27.936;2022-10-23T05:27:35;101123.59;;;16.18;56.90
9764;BME280;4921;43.214;27.936;2022-10-23T05:30:03;101121.34;;;16.23;55.92
9764;BME280;4921;43.214;27.936;2022-10-23T05:32:31;101133.19;;;16.28;55.67
9764;BME280;4921;43.214;27.936;2022-10-23T05:35:00;101133.59;;;16.33;55.42
9764;BME280;4921;43.214;27.936;2022-10-23T05:40:16;101137.34;;;16.40;55.33
9764;BME280;4921;43.214;27.936;2022-10-23T05:42:43;101140.94;;;16.49;55.28
9764;BME280;4921;43.214;27.936;2022-10-23T05:45:10;101132.56;;;16.53;55.16
9764;BME280;4921;43.214;27.936;2022-10-23T05:47:37;101138.97;;;16.60;54.81
9764;BME280;4921;43.214;27.936;2022-10-23T05:50:05;101141.03;;;16.66;55.02
9764;BME280;4921;43.214;27.936;2022-10-23T05:52:33;101150.22;;;16.72;55.24
9764;BME280;4921;43.214;27.936;2022-10-23T05:55:00;101147.81;;;16.78;54.98
9764;BME280;4921;43.214;27.936;2022-10-23T05:57:27;101153.19;;;16.87;54.99
9764;BME280;4921;43.214;27.936;2022-10-23T05:59:54;101162.25;;;16.94;54.83
9764;BME280;4921;43.214;27.936;2022-10-23T06:02:21;101161.34;;;17.03;54.82
9764;BME280;4921;43.214;27.936;2022-10-23T06:04:48;101168.88;;;17.07;55.18
9764;BME280;4921;43.214;27.936;2022-10-23T06:07:15;101159.63;;;17.11;55.36
9764;BME280;4921;43.214;27.936;2022-10-23T06:09:43;101170.19;;;17.21;54.75
9764;BME280;4921;43.214;27.936;2022-10-23T06:12:10;101153.94;;;17.24;55.31
9764;BME280;4921;43.214;27.936;2022-10-23T06:14:37;101168.81;;;17.34;56.93
9764;BME280;4921;43.214;27.936;2022-10-23T06:17:03;101163.56;;;17.42;56.93
9764;BME280;4921;43.214;27.936;2022-10-23T06:19:31;101172.50;;;17.51;56.70
9764;BME280;4921;43.214;27.936;2022-10-23T06:21:58;101167.53;;;17.56;57.04
9764;BME280;4921;43.214;27.936;2022-10-23T06:24:25;101165.28;;;17.61;56.29
9764;BME280;4921;43.214;27.936;2022-10-23T06:26:53;101169.28;;;17.65;55.58
9764;BME280;4921;43.214;27.936;2022-10-23T06:29:20;101171.03;;;17.74;54.71
9764;BME280;4921;43.214;27.936;2022-10-23T06:31:47;101166.91;;;17.80;54.81
9764;BME280;4921;43.214;27.936;2022-10-23T06:34:14;101167.78;;;17.88;54.00
9764;BME280;4921;43.214;27.936;2022-10-23T06:36:41;101168.56;;;17.98;53.82
9764;BME280;4921;43.214;27.936;2022-10-23T06:39:09;101161.59;;;18.05;54.06
9764;BME280;4921;43.214;27.936;2022-10-23T06:41:36;101165.59;;;18.09;54.02
9764;BME280;4921;43.214;27.936;2022-10-23T06:44:07;101164.00;;;18.16;54.00
9764;BME280;4921;43.214;27.936;2022-10-23T06:46:35;101170.84;;;18.19;54.35
9764;BME280;4921;43.214;27.936;2022-10-23T06:49:02;101170.75;;;18.28;53.82
9764;BME280;4921;43.214;27.936;2022-10-23T06:51:29;101178.59;;;18.38;53.88
9764;BME280;4921;43.214;27.936;2022-10-23T06:53:56;101157.66;;;18.43;53.94
9764;BME280;4921;43.214;27.936;2022-10-23T06:56:23;101180.25;;;18.65;55.63
9764;BME280;4921;43.214;27.936;2022-10-23T06:58:53;101183.25;;;18.70;56.80
9764;BME280;4921;43.214;27.936;2022-10-23T07:01:22;101170.69;;;18.88;57.34
9764;BME280;4921;43.214;27.936;2022-10-23T07:03:50;101170.56;;;18.97;59.31
9764;BME280;4921;43.214;27.936;2022-10-23T07:06:17;101176.25;;;19.11;57.94
9764;BME280;4921;43.214;27.936;2022-10-23T07:08:43;101184.09;;;19.20;57.18
9764;BME280;4921;43.214;27.936;2022-10-23T07:11:11;101186.44;;;19.31;57.40
9764;BME280;4921;43.214;27.936;2022-10-23T07:13:38;101184.47;;;19.41;57.07
9764;BME280;4921;43.214;27.936;2022-10-23T07:16:12;101168.81;;;19.54;56.39
9764;BME280;4921;43.214;27.936;2022-10-23T07:18:41;101166.00;;;19.72;55.31
9764;BME280;4921;43.214;27.936;2022-10-23T07:21:08;101154.16;;;19.74;55.25
9764;BME280;4921;43.214;27.936;2022-10-23T07:23:36;101171.81;;;19.92;55.22
9764;BME280;4921;43.214;27.936;2022-10-23T07:26:07;101171.13;;;20.06;54.61
9764;BME280;4921;43.214;27.936;2022-10-23T07:28:34;101177.78;;;20.18;54.04
9764;BME280;4921;43.214;27.936;2022-10-23T07:31:01;101178.44;;;20.28;53.58
9764;BME280;4921;43.214;27.936;2022-10-23T07:33:28;101185.38;;;20.53;52.66
9764;BME280;4921;43.214;27.936;2022-10-23T07:35:56;101175.19;;;20.57;52.62
9764;BME280;4921;43.214;27.936;2022-10-23T07:38:23;101180.69;;;20.63;52.14
9764;BME280;4921;43.214;27.936;2022-10-23T07:40:50;101181.31;;;20.73;52.40
9764;BME280;4921;43.214;27.936;2022-10-23T07:43:18;101172.44;;;20.81;51.74
9764;BME280;4921;43.214;27.936;2022-10-23T07:45:46;101175.53;;;20.92;51.56
9764;BME280;4921;43.214;27.936;2022-10-23T07:48:14;101174.16;;;20.96;51.03
9764;BME280;4921;43.214;27.936;2022-10-23T07:50:41;101171.00;;;20.93;51.53
9764;BME280;4921;43.214;27.936;2022-10-23T07:53:14;101186.00;;;21.02;51.38
9764;BME280;4921;43.214;27.936;2022-10-23T07:55:42;101190.88;;;21.06;51.40
9764;BME280;4921;43.214;27.936;2022-10-23T07:58:09;101207.88;;;21.13;51.90
9764;BME280;4921;43.214;27.936;2022-10-23T08:00:38;101210.84;;;21.18;52.58
9764;BME280;4921;43.214;27.936;2022-10-23T08:03:06;101209.88;;;21.42;51.75
9764;BME280;4921;43.214;27.936;2022-10-23T08:05:33;101227.19;;;21.54;51.42
9764;BME280;4921;43.214;27.936;2022-10-23T08:08:00;101225.75;;;21.66;51.45
9764;BME280;4921;43.214;27.936;2022-10-23T08:10:31;101224.38;;;21.70;51.61
9764;BME280;4921;43.214;27.936;2022-10-23T08:13:01;101216.63;;;21.83;50.69
9764;BME280;4921;43.214;27.936;2022-10-23T08:15:28;101212.75;;;21.86;51.65
9764;BME280;4921;43.214;27.936;2022-10-23T08:17:55;101213.50;;;21.94;50.66
9764;BME280;4921;43.214;27.936;2022-10-23T08:20:22;101220.47;;;22.04;50.21
9764;BME280;4921;43.214;27.936;2022-10-23T08:22:49;101224.06;;;22.11;50.03
9764;BME280;4921;43.214;27.936;2022-10-23T08:25:17;101230.94;;;22.28;48.98
9764;BME280;4921;43.214;27.936;2022-10-23T08:27:46;101228.72;;;22.31;49.24
9764;BME280;4921;43.214;27.936;2022-10-23T08:30:13;101234.38;;;22.36;49.71
9764;BME280;4921;43.214;27.936;2022-10-23T08:32:40;101243.63;;;22.48;48.80
9764;BME280;4921;43.214;27.936;2022-10-23T08:35:08;101242.03;;;22.54;49.10
9764;BME280;4921;43.214;27.936;2022-10-23T08:37:34;101247.38;;;22.62;49.14
9764;BME280;4921;43.214;27.936;2022-10-23T08:40:02;101241.16;;;22.76;47.56
9764;BME280;4921;43.214;27.936;2022-10-23T08:42:29;101237.81;;;22.89;46.23
9764;BME280;4921;43.214;27.936;2022-10-23T08:45:03;101229.59;;;22.90;45.74
9764;BME280;4921;43.214;27.936;2022-10-23T08:47:35;101239.50;;;22.90;46.13
9764;BME280;4921;43.214;27.936;2022-10-23T08:50:11;101236.44;;;22.93;46.86
9764;BME280;4921;43.214;27.936;2022-10-23T08:52:44;101231.88;;;23.08;46.03
9764;BME280;4921;43.214;27.936;2022-10-23T08:55:15;101230.09;;;23.15;45.31
9764;BME280;4921;43.214;27.936;2022-10-23T08:57:48;101244.81;;;23.19;44.83
9764;BME280;4921;43.214;27.936;2022-10-23T09:00:19;101253.78;;;23.26;44.83
9764;BME280;4921;43.214;27.936;2022-10-23T09:02:47;101253.53;;;23.35;44.89
9764;BME280;4921;43.214;27.936;2022-10-23T09:05:18;101263.72;;;23.46;43.90
9764;BME280;4921;43.214;27.936;2022-10-23T09:08:00;101271.34;;;23.43;44.04
9764;BME280;4921;43.214;27.936;2022-10-23T09:10:40;101258.44;;;23.53;43.91
9764;BME280;4921;43.214;27.936;2022-10-23T09:13:25;101273.63;;;23.61;43.94
9764;BME280;4921;43.214;27.936;2022-10-23T09:16:02;101269.25;;;23.60;43.57
9764;BME280;4921;43.214;27.936;2022-10-23T09:18:33;101279.81;;;23.61;44.14
9764;BME280;4921;43.214;27.936;2022-10-23T09:21:00;101264.34;;;23.63;44.80
9764;BME280;4921;43.214;27.936;2022-10-23T09:23:27;101271.91;;;23.74;44.05
9764;BME280;4921;43.214;27.936;2022-10-23T09:25:53;101281.25;;;23.78;44.03
9764;BME280;4921;43.214;27.936;2022-10-23T09:28:23;101282.97;;;23.86;43.48
9764;BME280;4921;43.214;27.936;2022-10-23T09:30:51;101276.00;;;23.91;43.39
9764;BME280;4921;43.214;27.936;2022-10-23T09:33:21;101276.16;;;23.90;43.73
9764;BME280;4921;43.214;27.936;2022-10-23T09:35:54;101281.53;;;24.04;44.18
9764;BME280;4921;43.214;27.936;2022-10-23T09:38:26;101287.03;;;24.03;44.49
9764;BME280;4921;43.214;27.936;2022-10-23T09:40:54;101286.69;;;24.06;44.46
9764;BME280;4921;43.214;27.936;2022-10-23T09:43:21;101300.00;;;24.14;44.28
9764;BME280;4921;43.214;27.936;2022-10-23T09:45:56;101298.59;;;24.18;43.59
9764;BME280;4921;43.214;27.936;2022-10-23T09:48:25;101298.63;;;24.24;45.31
9764;BME280;4921;43.214;27.936;2022-10-23T09:50:55;101303.06;;;24.32;42.43
9764;BME280;4921;43.214;27.936;2022-10-23T09:53:29;101298.53;;;24.39;42.55
9764;BME280;4921;43.214;27.936;2022-10-23T09:55:59;101294.63;;;24.42;42.47
9764;BME280;4921;43.214;27.936;2022-10-23T09:58:31;101297.97;;;24.44;41.95
9764;BME280;4921;43.214;27.936;2022-10-23T10:00:59;101290.34;;;24.47;42.11
9764;BME280;4921;43.214;27.936;2022-10-23T10:03:28;101288.72;;;24.53;42.19
9764;BME280;4921;43.214;27.936;2022-10-23T10:05:57;101296.88;;;24.66;41.75
9764;BME280;4921;43.214;27.936;2022-10-23T10:08:34;101295.06;;;24.73;41.69
9764;BME280;4921;43.214;27.936;2022-10-23T10:11:05;101293.03;;;24.75;41.36
9764;BME280;4921;43.214;27.936;2022-10-23T10:13:52;101304.06;;;24.80;41.38
9764;BME280;4921;43.214;27.936;2022-10-23T10:16:29;101297.25;;;24.84;40.98
9764;BME280;4921;43.214;27.936;2022-10-23T10:19:02;101309.69;;;24.91;40.73
9764;BME280;4921;43.214;27.936;2022-10-23T10:21:35;101301.91;;;25.03;40.31
9764;BME280;4921;43.214;27.936;2022-10-23T10:24:09;101289.25;;;24.97;40.68
9764;BME280;4921;43.214;27.936;2022-10-23T10:26:45;101291.34;;;25.02;40.84
9764;BME280;4921;43.214;27.936;2022-10-23T10:29:20;101287.41;;;25.04;40.69
9764;BME280;4921;43.214;27.936;2022-10-23T10:32:02;101287.25;;;25.12;40.26
9764;BME280;4921;43.214;27.936;2022-10-23T10:34:39;101276.91;;;25.16;40.24
9764;BME280;4921;43.214;27.936;2022-10-23T10:37:18;101285.22;;;25.21;39.19
9764;BME280;4921;43.214;27.936;2022-10-23T10:39:52;101294.72;;;25.17;39.67
9764;BME280;4921;43.214;27.936;2022-10-23T10:42:34;101294.72;;;25.17;39.80
9764;BME280;4921;43.214;27.936;2022-10-23T10:45:25;101287.09;;;25.27;39.61
9764;BME280;4921;43.214;27.936;2022-10-23T10:50:51;101294.56;;;25.31;39.23
9764;BME280;4921;43.214;27.936;2022-10-23T10:53:23;101300.13;;;25.30;39.02
9764;BME280;4921;43.214;27.936;2022-10-23T10:55:55;101297.66;;;25.28;38.68
9764;BME280;4921;43.214;27.936;2022-10-23T10:58:30;101296.63;;;25.29;38.82
9764;BME280;4921;43.214;27.936;2022-10-23T11:01:06;101284.78;;;25.24;38.99
9764;BME280;4921;43.214;27.936;2022-10-23T11:03:39;101273.63;;;25.27;39.40
9764;BME280;4921;43.214;27.936;2022-10-23T11:06:13;101279.44;;;25.30;38.79
9764;BME280;4921;43.214;27.936;2022-10-23T11:08:41;101275.09;;;25.29;38.68
9764;BME280;4921;43.214;27.936;2022-10-23T11:11:15;101273.66;;;25.33;38.38
9764;BME280;4921;43.214;27.936;2022-10-23T11:13:44;101274.13;;;25.43;38.00
9764;BME280;4921;43.214;27.936;2022-10-23T11:16:14;101276.34;;;25.33;37.92
9764;BME280;4921;43.214;27.936;2022-10-23T11:18:50;101272.41;;;25.29;38.14
9764;BME280;4921;43.214;27.936;2022-10-23T11:21:28;101267.41;;;25.26;37.93
9764;BME280;4921;43.214;27.936;2022-10-23T11:27:05;101280.69;;;25.34;37.61
9764;BME280;4921;43.214;27.936;2022-10-23T11:29:50;101290.69;;;25.40;37.57
9764;BME280;4921;43.214;27.936;2022-10-23T11:32:38;101297.34;;;25.44;37.75
9764;BME280;4921;43.214;27.936;2022-10-23T11:35:21;101284.72;;;25.51;37.52
9764;BME280;4921;43.214;27.936;2022-10-23T11:38:14;101272.31;;;25.63;37.27
9764;BME280;4921;43.214;27.936;2022-10-23T11:40:44;101285.78;;;25.63;37.57
9764;BME280;4921;43.214;27.936;2022-10-23T11:43:12;101282.25;;;25.63;37.49
9764;BME280;4921;43.214;27.936;2022-10-23T11:45:39;101279.34;;;25.64;37.31
9764;BME280;4921;43.214;27.936;2022-10-23T11:48:20;101277.13;;;25.75;37.11
9764;BME280;4921;43.214;27.936;2022-10-23T11:50:52;101276.50;;;25.73;37.05
9764;BME280;4921;43.214;27.936;2022-10-23T11:53:27;101294.72;;;25.64;37.07
9764;BME280;4921;43.214;27.936;2022-10-23T11:56:04;101285.34;;;25.60;36.81
9764;BME280;4921;43.214;27.936;2022-10-23T11:58:43;101291.19;;;25.63;36.78
9764;BME280;4921;43.214;27.936;2022-10-23T12:01:23;101290.94;;;25.52;37.30
9764;BME280;4921;43.214;27.936;2022-10-23T12:03:54;101303.78;;;25.50;37.10
9764;BME280;4921;43.214;27.936;2022-10-23T12:06:25;101306.50;;;25.56;37.12
9764;BME280;4921;43.214;27.936;2022-10-23T12:08:57;101304.03;;;25.61;37.17
9764;BME280;4921;43.214;27.936;2022-10-23T12:11:40;101306.28;;;25.58;37.27
9764;BME280;4921;43.214;27.936;2022-10-23T12:14:27;101293.25;;;25.55;37.05
9764;BME280;4921;43.214;27.936;2022-10-23T12:16:55;101306.50;;;25.56;36.99
9764;BME280;4921;43.214;27.936;2022-10-23T12:19:24;101296.53;;;25.50;36.74
9764;BME280;4921;43.214;27.936;2022-10-23T12:21:53;101294.84;;;25.49;36.88
9764;BME280;4921;43.214;27.936;2022-10-23T12:24:38;101311.88;;;25.50;36.93
9764;BME280;4921;43.214;27.936;2022-10-23T12:27:17;101306.06;;;25.46;36.81
9764;BME280;4921;43.214;27.936;2022-10-23T12:30:03;101311.00;;;25.43;36.64
9764;BME280;4921;43.214;27.936;2022-10-23T12:32:48;101308.88;;;25.38;36.97
9764;BME280;4921;43.214;27.936;2022-10-23T12:36:04;101313.63;;;25.36;36.89
9764;BME280;4921;43.214;27.936;2022-10-23T12:38:42;101313.22;;;25.33;37.22
9764;BME280;4921;43.214;27.936;2022-10-23T12:41:13;101308.06;;;25.38;37.30
9764;BME280;4921;43.214;27.936;2022-10-23T12:43:43;101307.22;;;25.37;37.04
9764;BME280;4921;43.214;27.936;2022-10-23T12:46:32;101319.25;;;25.41;37.38
9764;BME280;4921;43.214;27.936;2022-10-23T12:49:01;101316.56;;;25.41;37.35
9764;BME280;4921;43.214;27.936;2022-10-23T12:51:30;101299.75;;;25.33;37.37
9764;BME280;4921;43.214;27.936;2022-10-23T12:53:57;101317.78;;;25.39;37.27
9764;BME280;4921;43.214;27.936;2022-10-23T12:56:32;101310.13;;;25.36;37.25
9764;BME280;4921;43.214;27.936;2022-10-23T12:59:00;101327.31;;;25.35;37.57
9764;BME280;4921;43.214;27.936;2022-10-23T13:01:29;101317.13;;;25.30;37.38
9764;BME280;4921;43.214;27.936;2022-10-23T13:03:58;101327.03;;;25.23;37.74
9764;BME280;4921;43.214;27.936;2022-10-23T13:06:26;101330.38;;;25.19;37.47
9764;BME280;4921;43.214;27.936;2022-10-23T13:08:54;101325.16;;;25.17;37.44
9764;BME280;4921;43.214;27.936;2022-10-23T13:11:22;101321.41;;;25.12;37.64
9764;BME280;4921;43.214;27.936;2022-10-23T13:13:54;101325.53;;;25.08;37.92
9764;BME280;4921;43.214;27.936;2022-10-23T13:16:22;101333.16;;;25.04;38.08
9764;BME280;4921;43.214;27.936;2022-10-23T13:18:50;101326.53;;;25.00;37.98
9764;BME280;4921;43.214;27.936;2022-10-23T13:21:20;101335.19;;;24.95;38.23
9764;BME280;4921;43.214;27.936;2022-10-23T13:23:47;101331.03;;;24.93;38.30
9764;BME280;4921;43.214;27.936;2022-10-23T13:26:29;101330.19;;;24.86;38.43
9764;BME280;4921;43.214;27.936;2022-10-23T13:29:00;101326.59;;;24.79;38.68